createdAt,value
2018-05-12T00:01:40.628Z,13.13
2018-05-12T00:04:10.851Z,13.93
2018-05-12T00:06:40.899Z,13.70
2018-05-12T00:09:11.387Z,14.10
2018-05-12T00:11:41.519Z,12.97
2018-05-12T00:14:11.672Z,12.87
2018-05-12T00:16:41.457Z,12.90
2018-05-12T00:19:11.575Z,12.17
2018-05-12T00:21:41.669Z,12.17
2018-05-12T00:24:12.482Z,12.50
2018-05-12T00:26:42.680Z,11.30
2018-05-12T00:29:12.767Z,12.23
2018-05-12T00:31:42.886Z,12.73
2018-05-12T00:34:13.043Z,12.67
2018-05-12T00:36:43.237Z,13.63
2018-05-12T00:39:13.292Z,13.33
2018-05-12T00:41:43.368Z,13.23
2018-05-12T00:44:13.483Z,13.50
2018-05-12T00:46:43.609Z,14.37
2018-05-12T00:49:13.759Z,14.00
2018-05-12T00:51:43.959Z,15.13
2018-05-12T00:54:13.664Z,14.47
2018-05-12T00:56:44.832Z,13.90
2018-05-12T00:59:14.931Z,14.87
2018-05-12T01:01:46.378Z,14.60
2018-05-12T01:04:17.108Z,13.90
2018-05-12T01:06:47.641Z,14.13
2018-05-12T01:09:18.080Z,14.60
2018-05-12T01:11:49.639Z,13.60
2018-05-12T01:14:22.880Z,14.60
2018-05-12T01:16:53.006Z,14.57
2018-05-12T01:19:23.728Z,14.23
2018-05-12T01:21:53.999Z,14.03
2018-05-12T01:24:25.249Z,13.83
2018-05-12T01:26:56.906Z,13.47
2018-05-12T01:29:29.695Z,14.33
2018-05-12T01:31:59.396Z,13.10
2018-05-12T01:34:29.112Z,13.03
2018-05-12T01:37:00.564Z,13.77
2018-05-12T01:39:32.864Z,13.20
2018-05-12T01:42:03.356Z,13.03
2018-05-12T01:44:34.507Z,13.27
2018-05-12T01:47:04.668Z,13.27
2018-05-12T01:49:34.536Z,13.40
2018-05-12T01:52:04.656Z,13.60
2018-05-12T01:54:37.493Z,12.17
2018-05-12T01:57:08.375Z,12.57
2018-05-12T01:59:38.908Z,13.07
2018-05-12T02:02:09.047Z,14.00
2018-05-12T02:04:39.152Z,13.03
2018-05-12T02:07:08.860Z,13.73
2018-05-12T02:09:38.979Z,13.43
2018-05-12T02:12:09.410Z,11.87
2018-05-12T02:14:39.559Z,13.33
2018-05-12T02:17:09.656Z,13.37
2018-05-12T02:19:39.872Z,13.93
2018-05-12T02:22:09.965Z,13.97
2018-05-12T02:24:40.111Z,14.00
2018-05-12T02:27:10.157Z,14.33
2018-05-12T02:29:39.941Z,14.17
2018-05-12T02:32:10.059Z,11.87
2018-05-12T02:34:40.187Z,13.00
2018-05-12T02:37:10.306Z,13.30
2018-05-12T02:39:40.395Z,12.30
2018-05-12T02:42:12.193Z,13.43
2018-05-12T02:44:45.028Z,13.87
2018-05-12T02:47:16.107Z,14.80
2018-05-12T02:49:46.780Z,14.07
2018-05-12T02:52:16.559Z,15.03
2018-05-12T02:54:49.069Z,15.70
2018-05-12T02:57:22.181Z,14.73
2018-05-12T02:59:52.960Z,13.97
2018-05-12T03:02:24.448Z,14.50
2018-05-12T03:04:55.604Z,15.93
2018-05-12T03:07:26.293Z,15.47
2018-05-12T03:09:57.428Z,15.73
2018-05-12T03:12:28.988Z,16.93
2018-05-12T03:14:59.921Z,16.20
2018-05-12T03:17:30.042Z,16.00
2018-05-12T03:20:00.593Z,15.00
2018-05-12T03:22:30.336Z,15.73
2018-05-12T03:25:00.401Z,15.60
2018-05-12T03:27:32.022Z,14.43
2018-05-12T03:30:01.372Z,15.20
2018-05-12T03:32:31.591Z,15.40
2018-05-12T03:35:01.309Z,16.47
2018-05-12T03:37:31.300Z,15.97
2018-05-12T03:40:01.939Z,16.50
2018-05-12T03:42:33.812Z,17.13
2018-05-12T03:45:04.688Z,16.67
2018-05-12T03:47:37.831Z,16.33
2018-05-12T03:50:07.557Z,14.90
2018-05-12T03:52:37.664Z,15.83
2018-05-12T03:55:07.786Z,16.53
2018-05-12T03:57:38.366Z,16.90
2018-05-12T04:00:08.438Z,16.60
2018-05-12T04:02:39.019Z,16.57
2018-05-12T04:05:20.240Z,16.23
2018-05-12T04:09:00.766Z,16.50
2018-05-12T04:12:36.061Z,15.90
2018-05-12T04:15:06.171Z,14.47
2018-05-12T04:17:36.012Z,14.90
2018-05-12T04:20:06.111Z,14.63
2018-05-12T04:22:38.036Z,15.83
2018-05-12T04:25:09.040Z,13.50
2018-05-12T04:27:39.599Z,12.90
2018-05-12T04:30:09.733Z,12.87
2018-05-12T04:32:40.449Z,12.73
2018-05-12T04:35:10.996Z,12.73
2018-05-12T04:37:41.255Z,12.47
2018-05-12T04:40:11.672Z,11.23
2018-05-12T04:42:41.804Z,11.50
2018-05-12T04:45:12.029Z,11.50
2018-05-12T04:47:42.120Z,11.20
2018-05-12T04:50:12.267Z,10.90
2018-05-12T04:52:43.421Z,10.63
2018-05-12T04:55:13.544Z,9.97
2018-05-12T04:57:43.657Z,10.20
2018-05-12T05:00:13.826Z,11.10
2018-05-12T05:02:43.869Z,11.03
2018-05-12T05:05:14.017Z,11.50
2018-05-12T05:07:43.775Z,13.10
2018-05-12T05:10:13.845Z,12.50
2018-05-12T05:12:43.970Z,11.93
2018-05-12T05:15:14.225Z,13.10
2018-05-12T05:17:44.312Z,12.77
2018-05-12T05:20:14.529Z,13.23
2018-05-12T05:22:44.649Z,12.93
2018-05-12T05:25:14.768Z,11.43
2018-05-12T05:27:44.981Z,9.83
2018-05-12T05:30:14.650Z,9.53
2018-05-12T05:32:44.723Z,10.13
2018-05-12T05:35:14.913Z,9.63
2018-05-12T05:37:45.164Z,9.17
2018-05-12T05:40:15.997Z,9.20
2018-05-12T05:42:45.923Z,9.10
2018-05-12T05:45:17.394Z,9.13
2018-05-12T05:47:48.017Z,8.53
2018-05-12T05:50:18.136Z,9.33
2018-05-12T05:52:48.251Z,9.53
2018-05-12T05:55:18.627Z,9.40
2018-05-12T05:57:49.800Z,9.83
2018-05-12T06:00:20.344Z,9.40
2018-05-12T06:02:53.647Z,9.30
2018-05-12T06:05:25.187Z,8.97
2018-05-12T06:07:55.857Z,9.33
2018-05-12T06:10:26.712Z,9.17
2018-05-12T06:12:58.266Z,8.60
2018-05-12T06:15:29.559Z,8.53
2018-05-12T06:18:00.875Z,8.83
2018-05-12T06:20:31.024Z,8.33
2018-05-12T06:23:01.404Z,8.67
2018-05-12T06:25:31.987Z,9.17
2018-05-12T06:28:02.512Z,8.67
2018-05-12T06:30:34.284Z,9.37
2018-05-12T06:33:05.319Z,10.30
2018-05-12T06:35:35.647Z,9.67
2018-05-12T06:38:05.759Z,18.00
2018-05-12T06:40:35.920Z,11.33
2018-05-12T06:43:06.016Z,10.27
2018-05-12T06:45:36.119Z,11.03
2018-05-12T06:48:07.527Z,11.50
2018-05-12T06:50:39.208Z,11.43
2018-05-12T06:53:10.378Z,10.77
2018-05-12T06:55:42.131Z,10.37
2018-05-12T06:58:12.264Z,10.93
2018-05-12T07:00:43.898Z,10.73
2018-05-12T07:03:14.444Z,10.43
2018-05-12T07:05:45.279Z,12.00
2018-05-12T07:10:55.551Z,11.33
2018-05-12T07:13:28.954Z,11.47
2018-05-12T07:15:59.366Z,11.17
2018-05-12T07:18:29.595Z,11.43
2018-05-12T07:21:00.601Z,11.73
2018-05-12T07:23:30.664Z,11.97
2018-05-12T07:26:00.713Z,11.80
2018-05-12T07:28:30.493Z,10.97
2018-05-12T07:31:00.604Z,10.93
2018-05-12T07:33:30.764Z,10.83
2018-05-12T07:36:00.840Z,12.63
2018-05-12T07:38:31.047Z,12.40
2018-05-12T07:41:00.792Z,11.67
2018-05-12T07:43:30.902Z,12.47
2018-05-12T07:46:01.073Z,11.83
2018-05-12T07:48:30.789Z,12.40
2018-05-12T07:51:00.863Z,11.47
2018-05-12T07:53:30.569Z,13.57
2018-05-12T07:56:00.679Z,13.67
2018-05-12T07:58:30.940Z,13.73
2018-05-12T08:01:02.032Z,13.73
2018-05-12T08:03:32.257Z,13.97
2018-05-12T08:06:03.408Z,14.43
2018-05-12T08:08:33.598Z,14.80
2018-05-12T08:11:05.144Z,13.30
2018-05-12T08:13:38.487Z,13.37
2018-05-12T08:16:10.432Z,15.00
2018-05-12T08:18:41.532Z,18.57
2018-05-12T08:21:12.758Z,14.60
2018-05-12T08:23:50.419Z,16.13
2018-05-12T08:26:21.983Z,15.97
2018-05-12T08:28:53.679Z,15.60
2018-05-12T08:31:24.398Z,16.33
2018-05-12T08:33:55.314Z,15.57
2018-05-12T08:36:25.395Z,15.30
2018-05-12T08:38:55.667Z,15.13
2018-05-12T08:41:25.784Z,16.43
2018-05-12T08:43:55.900Z,13.23
2018-05-12T08:46:25.935Z,15.07
2018-05-12T08:48:56.040Z,15.97
2018-05-12T08:51:26.262Z,15.20
2018-05-12T08:53:56.396Z,17.10
2018-05-12T08:56:26.560Z,16.70
2018-05-12T08:58:56.680Z,16.83
2018-05-12T09:01:26.840Z,16.87
2018-05-12T09:03:57.083Z,16.47
2018-05-12T09:06:26.781Z,17.77
2018-05-12T09:08:58.251Z,18.43
2018-05-12T09:11:28.720Z,16.90
2018-05-12T09:13:59.328Z,15.60
2018-05-12T09:16:29.815Z,17.50
2018-05-12T09:19:01.683Z,17.87
2018-05-12T09:21:33.097Z,18.80
2018-05-12T09:24:05.755Z,18.00
2018-05-12T09:26:35.934Z,16.43
2018-05-12T09:29:06.056Z,16.37
2018-05-12T09:31:37.159Z,18.03
2018-05-12T09:34:07.315Z,15.63
2018-05-12T09:36:37.540Z,19.03
2018-05-12T09:39:07.672Z,17.07
2018-05-12T09:41:37.795Z,14.87
2018-05-12T09:44:07.750Z,14.90
2018-05-12T09:46:37.817Z,14.77
2018-05-12T09:49:07.909Z,18.47
2018-05-12T09:51:49.951Z,14.77
2018-05-12T09:54:20.756Z,14.13
2018-05-12T09:56:51.088Z,13.40
2018-05-12T09:59:21.323Z,13.13
2018-05-12T10:01:52.513Z,15.30
2018-05-12T10:04:37.481Z,16.17
2018-05-12T10:07:07.236Z,13.87
2018-05-12T10:09:39.271Z,15.90
2018-05-12T10:12:10.059Z,16.00
2018-05-12T10:14:42.252Z,13.50
2018-05-12T10:17:12.588Z,13.70
2018-05-12T10:19:49.059Z,12.67
2018-05-12T10:22:24.016Z,13.17
2018-05-12T10:24:54.120Z,16.00
2018-05-12T10:27:24.121Z,14.63
2018-05-12T10:29:54.119Z,13.13
2018-05-12T10:32:24.117Z,14.90
2018-05-12T10:34:54.232Z,14.37
2018-05-12T10:37:27.985Z,14.90
2018-05-12T10:39:57.985Z,17.37
2018-05-12T10:42:28.021Z,14.30
2018-05-12T10:44:58.052Z,15.80
2018-05-12T10:47:29.611Z,13.90
2018-05-12T10:50:01.317Z,12.63
2018-05-12T10:52:32.652Z,14.57
2018-05-12T10:55:02.992Z,15.10
2018-05-12T10:57:33.188Z,12.67
2018-05-12T11:00:13.484Z,12.93
2018-05-12T11:02:58.120Z,12.37
2018-05-12T11:05:28.345Z,13.40
2018-05-12T11:07:59.485Z,14.10
2018-05-12T11:10:29.349Z,12.83
2018-05-12T11:12:59.543Z,12.77
2018-05-12T11:15:31.404Z,13.20
2018-05-12T11:18:04.162Z,12.63
2018-05-12T11:20:36.096Z,12.83
2018-05-12T11:23:07.153Z,11.33
2018-05-12T11:25:37.604Z,13.30
2018-05-12T11:28:09.051Z,11.87
2018-05-12T11:30:46.426Z,11.20
2018-05-12T11:33:17.553Z,11.33
2018-05-12T11:35:47.919Z,11.17
2018-05-12T11:38:18.064Z,11.87
2018-05-12T11:40:48.217Z,12.37
2018-05-12T11:43:18.361Z,10.93
2018-05-12T11:45:48.543Z,10.23
2018-05-12T11:48:18.663Z,11.37
2018-05-12T11:50:55.888Z,10.23
2018-05-12T11:53:26.413Z,10.07
2018-05-12T11:55:57.682Z,9.47
2018-05-12T11:58:27.537Z,9.33
2018-05-12T12:00:57.349Z,9.87
2018-05-12T12:03:27.720Z,9.80
2018-05-12T12:05:57.943Z,8.37
2018-05-12T12:08:28.690Z,8.60
2018-05-12T12:10:58.891Z,9.83
2018-05-12T12:13:28.717Z,9.60
2018-05-12T12:15:58.637Z,8.63
2018-05-12T12:18:33.541Z,9.60
2018-05-12T12:21:23.582Z,8.63
2018-05-12T12:23:54.484Z,8.93
2018-05-12T12:26:26.327Z,6.87
2018-05-12T12:29:10.426Z,7.60
2018-05-12T12:31:41.424Z,7.77
2018-05-12T12:34:13.132Z,7.30
2018-05-12T12:36:44.008Z,8.57
2018-05-12T12:39:15.559Z,8.33
2018-05-12T12:41:46.697Z,7.33
2018-05-12T12:44:17.075Z,8.30
2018-05-12T12:46:47.763Z,7.97
2018-05-12T12:49:20.608Z,7.40
2018-05-12T12:51:57.356Z,6.13
2018-05-12T12:54:29.958Z,7.70
2018-05-12T12:57:15.240Z,7.23
2018-05-12T12:59:45.843Z,6.90
2018-05-12T13:02:16.331Z,6.30
2018-05-12T13:04:47.595Z,6.60
2018-05-12T13:07:18.361Z,7.23
2018-05-12T13:09:48.818Z,7.30
2018-05-12T13:12:19.345Z,7.07
2018-05-12T13:14:49.920Z,7.27
2018-05-12T13:17:19.755Z,8.70
2018-05-12T13:19:52.150Z,6.67
2018-05-12T13:22:35.009Z,8.10
2018-05-12T13:25:14.989Z,7.57
2018-05-12T13:27:58.844Z,7.53
2018-05-12T13:30:30.089Z,22.13
2018-05-12T13:33:01.098Z,7.13
2018-05-12T13:35:39.773Z,7.23
2018-05-12T13:38:13.002Z,5.90
2018-05-12T13:40:44.568Z,6.77
2018-05-12T13:43:25.363Z,6.90
2018-05-12T22:33:21.880Z,8.03
2018-05-12T22:35:52.110Z,7.43
2018-05-12T22:38:22.640Z,7.50
2018-05-12T22:40:52.760Z,7.10
2018-05-12T22:43:23.496Z,7.80
2018-05-12T22:45:58.940Z,7.17
2018-05-12T22:48:29.112Z,7.90
2018-05-12T22:50:59.158Z,7.23
2018-05-12T22:53:30.206Z,6.93
2018-05-12T22:56:01.108Z,6.70
2018-05-12T22:58:31.153Z,6.60
2018-05-12T23:01:01.186Z,7.50
2018-05-12T23:03:30.934Z,8.20
2018-05-12T23:06:01.021Z,7.00
2018-05-12T23:08:31.151Z,6.90
2018-05-12T23:11:01.302Z,7.27
2018-05-12T23:13:31.422Z,6.77
2018-05-12T23:16:01.512Z,7.63
2018-05-12T23:18:31.707Z,6.27
2018-05-12T23:21:01.853Z,7.23
2018-05-12T23:23:34.040Z,8.30
2018-05-12T23:26:04.143Z,10.23
2018-05-12T23:28:34.324Z,10.60
2018-05-12T23:31:04.431Z,9.77
2018-05-12T23:33:35.326Z,10.37
2018-05-12T23:36:05.491Z,9.63
2018-05-12T23:38:35.615Z,9.70
2018-05-12T23:41:05.697Z,9.60
2018-05-12T23:43:36.216Z,9.93
2018-05-12T23:46:07.268Z,8.40
2018-05-12T23:48:38.020Z,8.70
2018-05-12T23:51:08.412Z,8.57
2018-05-12T23:53:38.560Z,8.73
2018-05-12T23:56:08.663Z,8.60
2018-05-12T23:58:39.394Z,8.70
